createdAt,value
2023-06-09T00:02:19.584Z,98174.82
2023-06-09T00:04:47.893Z,98175.25
2023-06-09T00:07:17.183Z,98168.84
2023-06-09T00:09:45.568Z,98165.61
2023-06-09T00:12:13.593Z,98165.60
2023-06-09T00:14:41.341Z,98166.65
2023-06-09T00:17:09.513Z,98165.05
2023-06-09T00:19:37.803Z,98167.50
2023-06-09T00:22:06.274Z,98164.49
2023-06-09T00:24:33.970Z,98166.41
2023-06-09T00:27:01.871Z,98162.84
2023-06-09T00:29:29.556Z,98164.50
2023-06-09T00:31:57.335Z,98159.28
2023-06-09T00:34:25.240Z,98161.84
2023-06-09T00:36:53.040Z,98158.42
2023-06-09T00:39:20.859Z,98158.36
2023-06-09T00:41:48.685Z,98161.66
2023-06-09T00:44:16.540Z,98156.55
2023-06-09T00:46:44.295Z,98155.13
2023-06-09T00:49:12.358Z,98157.05
2023-06-09T00:51:40.143Z,98154.70
2023-06-09T00:54:07.764Z,98159.21
2023-06-09T00:56:35.890Z,98157.22
2023-06-09T00:59:03.534Z,98159.30
2023-06-09T01:01:34.289Z,98156.82
2023-06-09T01:04:02.699Z,98153.98
2023-06-09T01:06:40.941Z,98155.90
2023-06-09T01:09:21.660Z,98153.63
2023-06-09T01:12:05.026Z,98153.30
2023-06-09T01:15:21.201Z,98148.35
2023-06-09T01:17:53.857Z,98147.41
2023-06-09T01:20:36.977Z,98148.23
2023-06-09T01:23:21.943Z,98140.93
2023-06-09T01:25:51.343Z,98137.89
2023-06-09T01:28:21.998Z,98136.99
2023-06-09T01:30:50.394Z,98129.25
2023-06-09T01:33:22.516Z,98131.73
2023-06-09T01:35:51.104Z,98129.29
2023-06-09T01:38:23.656Z,98131.92
2023-06-09T01:40:51.526Z,98130.45
2023-06-09T01:43:19.344Z,98122.46
2023-06-09T01:45:47.215Z,98124.52
2023-06-09T01:48:20.933Z,98124.85
2023-06-09T01:51:03.420Z,98125.38
2023-06-09T01:53:35.941Z,98122.73
2023-06-09T01:56:11.643Z,98131.74
2023-06-09T01:58:48.913Z,98126.70
2023-06-09T02:01:18.348Z,98127.20
2023-06-09T02:03:47.055Z,98126.26
2023-06-09T02:06:14.883Z,98127.95
2023-06-09T02:08:44.031Z,98125.64
2023-06-09T02:11:11.690Z,98119.46
2023-06-09T02:13:39.364Z,98123.69
2023-06-09T02:16:08.330Z,98126.17
2023-06-09T02:18:36.023Z,98122.55
2023-06-09T02:21:03.835Z,98122.59
2023-06-09T02:23:31.611Z,98119.96
2023-06-09T02:25:59.243Z,98118.70
2023-06-09T02:28:26.858Z,98118.14
2023-06-09T02:30:54.691Z,98117.21
2023-06-09T02:33:25.434Z,98116.11
2023-06-09T02:35:53.540Z,98112.45
2023-06-09T02:38:24.357Z,98112.14
2023-06-09T02:40:52.175Z,98112.33
2023-06-09T02:43:19.819Z,98113.96
2023-06-09T02:45:48.320Z,98113.64
2023-06-09T02:48:16.453Z,98112.70
2023-06-09T02:50:44.244Z,98110.55
2023-06-09T02:53:12.002Z,98109.77
2023-06-09T02:55:39.693Z,98113.84
2023-06-09T02:58:09.179Z,98114.05
2023-06-09T03:00:37.194Z,98107.52
2023-06-09T03:03:08.552Z,98108.94
2023-06-09T03:05:41.402Z,98109.95
2023-06-09T03:08:10.844Z,98110.39
2023-06-09T03:10:38.523Z,98112.44
2023-06-09T03:13:06.229Z,98114.49
2023-06-09T03:15:34.712Z,98112.36
2023-06-09T03:18:02.495Z,98115.38
2023-06-09T03:20:30.735Z,98117.01
2023-06-09T03:22:59.431Z,98113.16
2023-06-09T03:25:28.733Z,98115.84
2023-06-09T03:27:56.616Z,98115.84
2023-06-09T03:30:24.254Z,98120.71
2023-06-09T03:32:52.108Z,98122.21
2023-06-09T03:35:20.425Z,98129.17
2023-06-09T03:37:48.100Z,98130.35
2023-06-09T03:40:16.455Z,98129.81
2023-06-09T03:42:44.100Z,98131.20
2023-06-09T03:45:11.784Z,98139.66
2023-06-09T03:47:39.418Z,98141.74
2023-06-09T03:50:08.483Z,98135.29
2023-06-09T03:52:39.418Z,98137.45
2023-06-09T03:55:09.680Z,98138.05
2023-06-09T03:57:37.558Z,98141.87
2023-06-09T04:00:06.878Z,98143.96
2023-06-09T04:02:34.894Z,98145.18
2023-06-09T04:05:03.519Z,98148.31
2023-06-09T04:07:31.332Z,98148.41
2023-06-09T04:09:59.679Z,98151.12
2023-06-09T04:12:27.330Z,98149.55
2023-06-09T04:14:54.981Z,98147.98
2023-06-09T04:17:23.781Z,98146.83
2023-06-09T04:19:55.656Z,98148.54
2023-06-09T04:22:24.879Z,98146.89
2023-06-09T04:24:52.490Z,98149.19
2023-06-09T04:27:20.603Z,98149.68
2023-06-09T04:29:48.392Z,98143.95
2023-06-09T04:32:18.117Z,98145.80
2023-06-09T04:34:46.845Z,98144.78
2023-06-09T04:37:15.384Z,98147.00
2023-06-09T04:39:46.668Z,98149.77
2023-06-09T04:42:14.396Z,98151.70
2023-06-09T04:44:44.152Z,98148.91
2023-06-09T04:47:13.755Z,98150.06
2023-06-09T04:49:42.781Z,98147.59
2023-06-09T04:52:12.139Z,98146.08
2023-06-09T04:54:39.802Z,98147.08
2023-06-09T04:57:10.812Z,98146.64
2023-06-09T04:59:40.344Z,98149.27
2023-06-09T05:02:10.174Z,98148.55
2023-06-09T05:04:38.158Z,98150.68
2023-06-09T05:07:07.886Z,98151.75
2023-06-09T05:09:36.007Z,98155.09
2023-06-09T05:12:03.953Z,98157.70
2023-06-09T05:14:33.123Z,98156.91
2023-06-09T05:17:01.322Z,98161.77
2023-06-09T05:19:29.093Z,98157.52
2023-06-09T05:21:58.069Z,98154.52
2023-06-09T05:24:26.040Z,98150.33
2023-06-09T05:26:53.701Z,98152.83
2023-06-09T05:29:22.241Z,98150.85
2023-06-09T05:31:50.230Z,98154.13
2023-06-09T05:34:17.904Z,98152.25
2023-06-09T05:36:46.354Z,98155.80
2023-06-09T05:39:14.443Z,98161.19
2023-06-09T05:41:42.152Z,98162.52
2023-06-09T05:44:09.786Z,98161.58
2023-06-09T05:46:39.069Z,98162.02
2023-06-09T05:49:07.194Z,98163.29
2023-06-09T05:51:35.002Z,98163.80
2023-06-09T05:54:02.778Z,98160.39
2023-06-09T05:56:30.880Z,98164.76
2023-06-09T05:59:04.389Z,98157.67
2023-06-09T06:01:33.179Z,98159.44
2023-06-09T06:04:01.361Z,98159.03
2023-06-09T06:06:31.325Z,98160.39
2023-06-09T06:08:59.177Z,98161.55
2023-06-09T06:11:26.941Z,98159.71
2023-06-09T06:13:54.596Z,98161.77
2023-06-09T06:16:22.479Z,98161.65
2023-06-09T06:18:50.285Z,98165.73
2023-06-09T06:21:18.453Z,98166.94
2023-06-09T06:23:46.303Z,98166.74
2023-06-09T06:26:14.050Z,98164.05
2023-06-09T06:28:41.706Z,98163.73
2023-06-09T06:31:10.251Z,98165.14
2023-06-09T06:33:38.135Z,98163.59
2023-06-09T06:36:06.130Z,98164.73
2023-06-09T06:38:33.901Z,98164.88
2023-06-09T06:41:01.610Z,98160.98
2023-06-09T06:43:29.246Z,98160.58
2023-06-09T06:45:57.111Z,98169.15
2023-06-09T06:48:25.027Z,98165.92
2023-06-09T06:50:52.676Z,98165.28
2023-06-09T06:53:20.352Z,98165.94
2023-06-09T06:55:47.999Z,98171.00
2023-06-09T06:58:16.017Z,98172.97
2023-06-09T07:00:43.886Z,98172.80
2023-06-09T07:03:13.702Z,98171.34
2023-06-09T07:05:41.615Z,98169.60
2023-06-09T07:08:09.327Z,98177.83
2023-06-09T07:10:36.964Z,98177.57
2023-06-09T07:13:04.618Z,98176.27
2023-06-09T07:15:32.399Z,98174.57
2023-06-09T07:18:00.217Z,98170.27
2023-06-09T07:20:27.952Z,98174.77
2023-06-09T07:22:55.706Z,98171.09
2023-06-09T07:25:23.328Z,98166.76
2023-06-09T07:27:51.169Z,98166.67
2023-06-09T07:30:19.039Z,98164.40
2023-06-09T07:32:46.982Z,98162.60
2023-06-09T07:35:14.937Z,98156.20
2023-06-09T07:37:44.576Z,98157.23
2023-06-09T07:40:20.125Z,98155.27
2023-06-09T07:42:50.451Z,98154.98
2023-06-09T07:45:18.761Z,98152.13
2023-06-09T07:47:46.659Z,98148.21
2023-06-09T07:50:14.451Z,98149.63
2023-06-09T07:52:42.531Z,98146.77
2023-06-09T07:55:14.852Z,98149.19
2023-06-09T07:57:44.920Z,98154.70
2023-06-09T08:00:15.063Z,98153.45
2023-06-09T08:02:44.428Z,98152.23
2023-06-09T08:05:13.145Z,98148.59
2023-06-09T08:07:40.979Z,98148.29
2023-06-09T08:10:09.060Z,98149.11
2023-06-09T08:12:37.640Z,98150.26
2023-06-09T08:15:06.609Z,98147.07
2023-06-09T08:17:34.385Z,98147.27
2023-06-09T08:20:04.679Z,98148.08
2023-06-09T08:22:32.315Z,98138.24
2023-06-09T08:25:00.739Z,98134.61
2023-06-09T08:27:28.567Z,98131.62
2023-06-09T08:29:56.369Z,98135.03
2023-06-09T08:32:24.089Z,98137.17
2023-06-09T08:34:51.985Z,98135.52
2023-06-09T08:37:20.308Z,98137.34
2023-06-09T08:39:48.995Z,98137.13
2023-06-09T08:42:22.296Z,98136.23
2023-06-09T08:44:51.764Z,98130.60
2023-06-09T08:47:21.494Z,98130.81
2023-06-09T08:49:49.589Z,98130.10
2023-06-09T08:52:17.261Z,98130.42
2023-06-09T08:54:45.700Z,98127.85
2023-06-09T08:57:13.430Z,98125.41
2023-06-09T08:59:41.735Z,98124.82
2023-06-09T09:02:09.396Z,98125.51
2023-06-09T09:04:39.821Z,98130.59
2023-06-09T09:07:08.017Z,98131.23
2023-06-09T09:09:35.672Z,98129.11
2023-06-09T09:12:03.738Z,98122.48
2023-06-09T09:14:31.540Z,98117.70
2023-06-09T09:16:59.458Z,98114.54
2023-06-09T09:19:27.980Z,98114.57
2023-06-09T09:21:56.428Z,98113.48
2023-06-09T09:24:33.626Z,98113.45
2023-06-09T09:27:01.273Z,98113.11
2023-06-09T09:29:29.637Z,98112.91
2023-06-09T09:32:00.402Z,98108.55
2023-06-09T09:34:28.332Z,98103.77
2023-06-09T09:36:56.634Z,98099.73
2023-06-09T09:39:24.697Z,98102.28
2023-06-09T09:42:09.863Z,98108.55
2023-06-09T09:44:40.750Z,98107.92
2023-06-09T09:47:11.499Z,98104.56
2023-06-09T09:49:39.509Z,98108.90
2023-06-09T09:52:07.920Z,98103.46
2023-06-09T09:54:36.856Z,98101.81
2023-06-09T09:57:04.979Z,98100.20
2023-06-09T09:59:32.622Z,98103.11
2023-06-09T10:02:00.233Z,98099.18
2023-06-09T10:04:27.991Z,98097.34
2023-06-09T10:06:55.774Z,98098.37
2023-06-09T10:09:24.531Z,98093.19
2023-06-09T10:11:53.251Z,98086.11
2023-06-09T10:14:21.781Z,98087.77
2023-06-09T10:16:51.111Z,98082.23
2023-06-09T10:19:18.884Z,98084.79
2023-06-09T10:21:47.370Z,98082.36
2023-06-09T10:24:15.227Z,98080.38
2023-06-09T10:26:43.059Z,98081.80
2023-06-09T10:29:10.874Z,98073.58
2023-06-09T10:31:38.720Z,98070.34
2023-06-09T10:34:08.119Z,98065.93
2023-06-09T10:36:41.098Z,98058.89
2023-06-09T10:39:19.917Z,98045.33
2023-06-09T10:42:04.854Z,98043.33
2023-06-09T10:44:40.718Z,98038.89
2023-06-09T10:47:09.459Z,98037.30
2023-06-09T10:49:39.229Z,98039.10
2023-06-09T10:52:27.474Z,98038.48
2023-06-09T10:55:14.618Z,98034.23
2023-06-09T10:57:43.283Z,98028.48
2023-06-09T11:00:15.568Z,98027.38
2023-06-09T11:02:45.654Z,98024.48
2023-06-09T11:05:13.774Z,98017.77
2023-06-09T11:08:03.677Z,98013.06
2023-06-09T11:10:31.862Z,98012.37
2023-06-09T11:13:00.747Z,98009.94
2023-06-09T11:15:57.497Z,98011.16
2023-06-09T11:18:26.233Z,98004.81
2023-06-09T11:21:11.228Z,98002.70
2023-06-09T11:23:59.166Z,97997.38
2023-06-09T11:26:27.891Z,97997.23
2023-06-09T11:28:55.593Z,97998.80
2023-06-09T11:31:23.313Z,98003.79
2023-06-09T11:33:52.531Z,98003.54
2023-06-09T11:36:31.245Z,98003.52
2023-06-09T11:39:05.160Z,97995.92
2023-06-09T11:41:33.111Z,97989.91
2023-06-09T11:44:01.506Z,97982.54
2023-06-09T11:46:34.266Z,97978.91
2023-06-09T11:49:02.779Z,97982.73
2023-06-09T11:51:49.766Z,97985.86
2023-06-09T11:54:18.058Z,97986.63
2023-06-09T11:56:47.251Z,97984.48
2023-06-09T11:59:27.395Z,97982.64
2023-06-09T12:02:05.341Z,97984.19
2023-06-09T12:04:33.192Z,97987.58
2023-06-09T12:07:01.510Z,97988.14
2023-06-09T12:09:29.144Z,97989.05
2023-06-09T12:11:57.117Z,97991.11
2023-06-09T12:14:24.961Z,97991.24
2023-06-09T12:16:55.112Z,97987.66
2023-06-09T12:19:26.599Z,97982.98
2023-06-09T12:21:54.325Z,97984.58
2023-06-09T12:24:22.253Z,97992.06
2023-06-09T12:26:50.371Z,98000.25
2023-06-09T12:29:18.034Z,97997.73
2023-06-09T12:31:50.423Z,97999.30
2023-06-09T12:34:25.760Z,98001.02
2023-06-09T12:36:53.931Z,97997.16
2023-06-09T12:39:22.272Z,98003.29
2023-06-09T12:41:50.104Z,98001.27
2023-06-09T12:44:25.279Z,98004.80
2023-06-09T12:46:56.633Z,98007.17
2023-06-09T12:49:36.974Z,98008.44
2023-06-09T12:52:05.088Z,98006.33
2023-06-09T12:54:32.740Z,98007.46
2023-06-09T12:57:00.367Z,98007.39
2023-06-09T12:59:28.196Z,98001.39
2023-06-09T13:01:55.832Z,97998.80
2023-06-09T13:04:23.627Z,97997.84
2023-06-09T13:06:51.633Z,98004.35
2023-06-09T13:09:19.858Z,98003.89
2023-06-09T13:11:47.557Z,98006.55
2023-06-09T13:14:15.504Z,98008.96
2023-06-09T13:16:43.209Z,98017.09
2023-06-09T13:19:10.988Z,98017.99
2023-06-09T13:21:45.136Z,98014.05
2023-06-09T13:24:13.884Z,98011.68
2023-06-09T13:26:42.061Z,98022.80
2023-06-09T13:29:10.540Z,98016.05
2023-06-09T13:31:38.745Z,98011.41
2023-06-09T13:34:06.614Z,98015.55
2023-06-09T13:36:35.269Z,98021.68
2023-06-09T13:39:04.021Z,98027.81
2023-06-09T13:41:32.112Z,98032.30
2023-06-09T13:44:00.525Z,98029.78
2023-06-09T13:46:28.263Z,98026.32
2023-06-09T13:48:56.165Z,98029.94
2023-06-09T13:51:23.953Z,98032.41
2023-06-09T13:53:51.662Z,98039.94
2023-06-09T13:56:21.386Z,98049.40
2023-06-09T13:58:49.086Z,98060.08
2023-06-09T14:01:16.888Z,98061.98
2023-06-09T14:03:45.788Z,98055.66
2023-06-09T14:06:13.676Z,98038.95
2023-06-09T14:08:41.610Z,98037.56
2023-06-09T14:11:09.934Z,98042.04
2023-06-09T14:13:37.644Z,98046.48
2023-06-09T14:16:05.907Z,98042.08
2023-06-09T14:18:33.708Z,98045.05
2023-06-09T14:21:01.576Z,98071.80
2023-06-09T14:23:29.470Z,98095.44
2023-06-09T14:25:57.437Z,98110.00
2023-06-09T14:28:25.173Z,98120.86
2023-06-09T14:30:52.907Z,98122.41
2023-06-09T14:33:20.587Z,98125.59
2023-06-09T14:35:48.469Z,98111.41
2023-06-09T14:38:16.283Z,98114.14
2023-06-09T14:40:43.966Z,98117.17
2023-06-09T14:43:11.958Z,98114.27
2023-06-09T14:45:39.897Z,98107.52
2023-06-09T14:48:10.339Z,98102.91
2023-06-09T14:50:39.771Z,98097.90
2023-06-09T14:53:08.013Z,98090.45
2023-06-09T14:55:40.146Z,98099.42
2023-06-09T14:58:08.188Z,98113.13
2023-06-09T15:00:36.704Z,98110.41
2023-06-09T15:03:06.532Z,98113.56
2023-06-09T15:05:34.834Z,98114.09
2023-06-09T15:08:03.385Z,98100.98
2023-06-09T15:10:32.558Z,98092.20
2023-06-09T15:13:00.845Z,98087.31
2023-06-09T15:15:29.464Z,98092.22
2023-06-09T15:18:03.760Z,98107.05
2023-06-09T15:20:31.957Z,98109.02
2023-06-09T15:23:00.876Z,98111.77
2023-06-09T15:25:33.913Z,98111.91
2023-06-09T15:28:10.836Z,98102.69
2023-06-09T15:30:40.731Z,98108.16
2023-06-09T15:33:09.436Z,98107.80
2023-06-09T15:35:38.860Z,98110.86
2023-06-09T15:38:07.988Z,98114.58
2023-06-09T15:40:43.516Z,98118.30
2023-06-09T15:43:12.318Z,98122.44
2023-06-09T15:45:43.676Z,98125.00
2023-06-09T15:48:11.614Z,98127.25
2023-06-09T15:50:40.355Z,98124.52
2023-06-09T15:53:08.556Z,98121.92
2023-06-09T15:55:36.468Z,98126.80
2023-06-09T15:58:07.319Z,98134.50
2023-06-09T16:00:35.411Z,98134.14
2023-06-09T16:03:06.860Z,98139.63
2023-06-09T16:05:36.173Z,98131.16
2023-06-09T16:08:08.448Z,98130.94
2023-06-09T16:10:37.681Z,98137.73
2023-06-09T16:13:06.139Z,98134.09
2023-06-09T16:15:37.916Z,98123.42
2023-06-09T16:18:06.845Z,98127.79
2023-06-09T16:20:35.794Z,98132.52
2023-06-09T16:23:04.182Z,98129.77
2023-06-09T16:25:33.421Z,98132.35
2023-06-09T16:28:01.948Z,98125.33
2023-06-09T16:30:32.016Z,98118.83
2023-06-09T16:33:01.569Z,98118.55
2023-06-09T16:35:29.282Z,98116.02
2023-06-09T16:37:57.002Z,98116.08
2023-06-09T16:40:29.381Z,98110.62
2023-06-09T16:42:58.708Z,98114.92
2023-06-09T16:45:26.779Z,98117.34
2023-06-09T16:47:54.680Z,98116.64
2023-06-09T16:50:22.536Z,98120.38
2023-06-09T16:52:50.773Z,98126.27
2023-06-09T16:55:18.517Z,98130.71
2023-06-09T16:57:46.399Z,98126.45
2023-06-09T17:00:14.668Z,98127.48
2023-06-09T17:02:42.832Z,98127.13
2023-06-09T17:05:11.295Z,98126.98
2023-06-09T17:07:39.387Z,98130.02
2023-06-09T17:10:07.813Z,98129.42
2023-06-09T17:12:35.666Z,98126.60
2023-06-09T17:15:03.531Z,98129.23
2023-06-09T17:17:31.929Z,98125.98
2023-06-09T17:19:59.696Z,98125.31
2023-06-09T17:22:27.377Z,98124.13
2023-06-09T17:24:55.090Z,98122.64
2023-06-09T17:27:22.961Z,98123.41
2023-06-09T17:29:50.729Z,98122.05
2023-06-09T17:32:18.465Z,98123.07
2023-06-09T17:34:46.278Z,98120.04
2023-06-09T17:37:15.600Z,98123.77
2023-06-09T17:39:43.556Z,98118.91
2023-06-09T17:42:12.212Z,98113.15
2023-06-09T17:44:39.873Z,98108.17
2023-06-09T17:47:07.680Z,98102.27
2023-06-09T17:49:35.561Z,98104.02
2023-06-09T17:52:03.941Z,98098.73
2023-06-09T17:54:37.230Z,98098.55
2023-06-09T17:57:08.839Z,98095.80
2023-06-09T17:59:36.584Z,98090.92
2023-06-09T18:02:04.618Z,98091.14
2023-06-09T18:04:32.407Z,98090.20
2023-06-09T18:07:01.413Z,98089.27
2023-06-09T18:09:29.074Z,98086.02
2023-06-09T18:11:56.738Z,98091.87
2023-06-09T18:14:24.414Z,98089.55
2023-06-09T18:16:52.052Z,98091.98
2023-06-09T18:19:20.032Z,98096.73
2023-06-09T18:21:47.680Z,98103.58
2023-06-09T18:24:15.461Z,98109.52
2023-06-09T18:26:43.278Z,98118.69
2023-06-09T18:29:11.109Z,98127.77
2023-06-09T18:31:38.792Z,98120.67
2023-06-09T18:34:06.846Z,98118.98
2023-06-09T18:36:34.479Z,98122.92
2023-06-09T18:39:02.273Z,98123.27
2023-06-09T18:41:30.005Z,98122.15
2023-06-09T18:43:58.010Z,98118.08
2023-06-09T18:46:25.806Z,98123.03
2023-06-09T18:49:01.218Z,98120.41
2023-06-09T18:51:29.649Z,98119.37
2023-06-09T18:53:58.733Z,98118.63
2023-06-09T18:56:27.299Z,98118.95
2023-06-09T18:58:55.197Z,98121.35
2023-06-09T19:01:23.187Z,98128.36
2023-06-09T19:03:51.420Z,98125.54
2023-06-09T19:06:19.707Z,98133.69
2023-06-09T19:08:47.665Z,98132.51
2023-06-09T19:11:15.692Z,98132.70
2023-06-09T19:13:44.367Z,98138.33
2023-06-09T19:16:12.185Z,98139.69
2023-06-09T19:18:40.116Z,98142.33
2023-06-09T19:21:07.912Z,98138.12
2023-06-09T19:23:36.546Z,98145.27
2023-06-09T19:26:04.545Z,98144.84
2023-06-09T19:28:35.693Z,98141.71
2023-06-09T19:31:03.988Z,98141.55
2023-06-09T19:33:31.643Z,98139.23
2023-06-09T19:36:00.037Z,98135.67
2023-06-09T19:38:27.795Z,98140.83
2023-06-09T19:40:55.570Z,98136.66
2023-06-09T19:43:23.462Z,98140.73
2023-06-09T19:45:51.234Z,98137.63
2023-06-09T19:48:19.657Z,98140.13
2023-06-09T19:50:47.562Z,98139.98
2023-06-09T19:53:15.398Z,98140.18
2023-06-09T19:55:43.189Z,98139.91
2023-06-09T19:58:12.154Z,98136.65
2023-06-09T20:00:39.976Z,98135.85
2023-06-09T20:03:08.899Z,98134.16
2023-06-09T20:05:37.904Z,98136.11
2023-06-09T20:08:06.068Z,98133.61
2023-06-09T20:10:33.757Z,98132.76
2023-06-09T20:13:01.948Z,98133.36
2023-06-09T20:15:29.642Z,98134.36
2023-06-09T20:17:57.565Z,98132.20
2023-06-09T20:20:32.881Z,98133.38
2023-06-09T20:23:04.903Z,98136.05
2023-06-09T20:25:33.694Z,98139.95
2023-06-09T20:28:01.703Z,98140.86
2023-06-09T20:30:29.815Z,98140.39
2023-06-09T20:32:57.727Z,98145.98
2023-06-09T20:35:26.021Z,98142.91
2023-06-09T20:37:53.654Z,98142.80
2023-06-09T20:40:21.366Z,98140.35
2023-06-09T20:42:49.008Z,98138.61
2023-06-09T20:45:17.794Z,98136.64
2023-06-09T20:47:45.535Z,98135.60
2023-06-09T20:50:13.231Z,98132.13
2023-06-09T20:52:41.311Z,98137.15
2023-06-09T20:55:09.924Z,98138.59
2023-06-09T20:57:37.911Z,98142.83
2023-06-09T21:00:06.820Z,98143.00
2023-06-09T21:02:36.379Z,98141.77
2023-06-09T21:05:06.381Z,98137.77
2023-06-09T21:07:34.281Z,98132.91
2023-06-09T21:10:02.220Z,98137.04
2023-06-09T21:12:29.848Z,98133.57
2023-06-09T21:14:57.648Z,98135.50
2023-06-09T21:17:25.597Z,98134.62
2023-06-09T21:19:53.359Z,98139.92
2023-06-09T21:22:21.030Z,98140.29
2023-06-09T21:24:48.712Z,98141.77
2023-06-09T21:27:16.620Z,98141.27
2023-06-09T21:29:44.320Z,98147.48
2023-06-09T21:32:12.330Z,98138.30
2023-06-09T21:34:40.038Z,98136.52
2023-06-09T21:37:07.726Z,98137.75
2023-06-09T21:39:35.877Z,98140.60
2023-06-09T21:42:03.844Z,98139.08
2023-06-09T21:44:31.498Z,98143.52
2023-06-09T21:46:59.240Z,98145.48
2023-06-09T21:49:27.022Z,98147.23
2023-06-09T21:51:54.821Z,98144.02
2023-06-09T21:54:22.511Z,98142.91
2023-06-09T21:56:50.207Z,98146.78
2023-06-09T21:59:18.084Z,98141.36
2023-06-09T22:01:45.795Z,98144.42
2023-06-09T22:04:13.478Z,98143.91
2023-06-09T22:06:41.220Z,98142.48
2023-06-09T22:09:08.872Z,98145.30
2023-06-09T22:11:36.630Z,98146.01
2023-06-09T22:14:04.806Z,98146.36
2023-06-09T22:16:32.448Z,98143.73
2023-06-09T22:19:00.092Z,98145.86
2023-06-09T22:21:27.752Z,98143.93
2023-06-09T22:23:55.780Z,98139.84
2023-06-09T22:26:23.458Z,98142.45
2023-06-09T22:28:51.298Z,98138.50
2023-06-09T22:31:21.099Z,98138.13
2023-06-09T22:33:48.770Z,98138.65
2023-06-09T22:36:16.516Z,98139.36
2023-06-09T22:38:44.210Z,98138.64
2023-06-09T22:41:11.883Z,98134.52
2023-06-09T22:43:39.671Z,98135.85
2023-06-09T22:46:07.321Z,98136.66
2023-06-09T22:48:38.625Z,98136.13
2023-06-09T22:51:06.500Z,98133.13
2023-06-09T22:53:36.098Z,98135.81
2023-06-09T22:56:03.904Z,98132.46
2023-06-09T22:58:31.589Z,98134.01
2023-06-09T23:00:59.298Z,98132.59
2023-06-09T23:03:27.238Z,98129.08
2023-06-09T23:06:01.273Z,98131.73
2023-06-09T23:08:28.950Z,98128.91
2023-06-09T23:10:56.643Z,98133.89
2023-06-09T23:13:24.356Z,98133.00
2023-06-09T23:15:54.440Z,98129.61
2023-06-09T23:18:23.288Z,98125.54
2023-06-09T23:20:56.568Z,98125.02
2023-06-09T23:23:27.098Z,98128.23
2023-06-09T23:25:54.741Z,98126.52
2023-06-09T23:28:22.530Z,98127.95
2023-06-09T23:30:50.268Z,98124.93
2023-06-09T23:33:18.965Z,98127.33
2023-06-09T23:35:46.944Z,98127.67
2023-06-09T23:38:14.671Z,98124.68
2023-06-09T23:40:42.565Z,98123.34
2023-06-09T23:43:10.318Z,98123.06
2023-06-09T23:45:38.017Z,98124.86
2023-06-09T23:48:06.262Z,98127.20
2023-06-09T23:50:33.895Z,98125.65
2023-06-09T23:53:01.567Z,98123.20
2023-06-09T23:55:29.180Z,98122.70
2023-06-09T23:57:56.857Z,98122.22
